Terminal Aerodrome Forecast
Issued by NWS Jackson, KY

Home | Current Version | Previous Version | Text Only | Print | Product List | Glossary On
Versions: 1 2 3 4 5 6 7 8 9 10 11 12 13 14 15 16 17 18 19 20
000
FTUS43 KJKL 011400 AAA
TAFJKL
TAF AMD
KJKL 011407Z 0114/0212 00000KT 1/4SM FG VV001
     FM011500 00000KT 3SM BR SCT003 OVC006
     FM011600 VRB03KT P6SM SKC=

USA.gov is the U.S. government's official web portal to all federal, state and local government web resources and services.